Time;durP1;ratioP1;P1;durP2;ratioP2;P2;SDS_P1;SDS_P2;PMS_P1;PMS_P2;Temp;Humidity;BMP_temperature;BMP_pressure;BME280_temperature;BME280_humidity;BME280_pressure;Samples;Min_cycle;Max_cycle;Signal;HPM_P1;HPM_P2
2022/03/09 00:00:06;;;;;;;37.95;16.70;;;;;;;0.36;98.83;100364.34;5113645;27;20559;-75
2022/03/09 00:02:53;;;;;;;27.23;14.18;;;;;;;0.42;98.73;100362.53;5113728;28;20059;-76
2022/03/09 00:05:22;;;;;;;31.27;16.35;;;;;;;0.44;98.99;100362.50;5113666;28;20055;-76
2022/03/09 00:07:50;;;;;;;29.02;16.23;;;;;;;0.37;99.04;100361.66;5113372;27;20071;-75
2022/03/09 00:10:17;;;;;;;26.20;13.43;;;;;;;0.36;98.94;100361.66;5113575;27;20043;-75
2022/03/09 00:12:45;;;;;;;24.02;12.50;;;;;;;0.42;99.19;100364.28;5113455;27;20048;-76
2022/03/09 00:15:12;;;;;;;23.02;13.10;;;;;;;0.50;98.82;100370.44;5113417;28;20387;-76
2022/03/09 00:17:40;;;;;;;35.22;17.10;;;;;;;0.55;98.15;100368.63;5113451;27;20036;-75
2022/03/09 00:20:09;;;;;;;33.13;15.65;;;;;;;0.56;97.58;100367.72;5113034;27;20490;-76
2022/03/09 00:22:37;;;;;;;31.42;15.40;;;;;;;0.57;97.94;100368.63;5113414;27;20043;-76
2022/03/09 00:25:05;;;;;;;24.27;12.68;;;;;;;0.56;97.41;100370.38;5113310;27;20039;-75
2022/03/09 00:27:34;;;;;;;22.90;12.00;;;;;;;0.65;97.28;100368.59;5113394;28;20043;-76
2022/03/09 00:30:02;;;;;;;19.85;9.63;;;;;;;0.55;96.96;100358.00;5113395;28;20092;-76
2022/03/09 00:32:30;;;;;;;17.50;8.90;;;;;;;0.57;97.10;100365.97;5113218;28;20047;-76
2022/03/09 00:34:57;;;;;;;16.08;7.97;;;;;;;0.54;95.85;100361.53;5112487;28;20055;-76
2022/03/09 00:37:24;;;;;;;15.55;6.82;;;;;;;0.44;94.74;100351.88;5113010;27;20059;-76
2022/03/09 00:39:54;;;;;;;11.63;5.60;;;;;;;0.42;92.38;100343.91;5113376;27;20455;-76
2022/03/09 00:42:21;;;;;;;13.52;5.95;;;;;;;0.41;93.14;100357.22;5113218;28;20040;-76
2022/03/09 00:44:48;;;;;;;10.88;5.35;;;;;;;0.36;92.78;100353.69;5113147;28;20044;-76
2022/03/09 00:47:16;;;;;;;11.95;5.30;;;;;;;0.35;92.04;100349.28;5112763;28;20050;-75
2022/03/09 00:49:43;;;;;;;11.25;5.28;;;;;;;0.28;92.25;100348.41;5112819;27;20047;-76
2022/03/09 00:52:11;;;;;;;10.43;5.50;;;;;;;0.22;92.16;100352.03;5115086;27;20602;-76
2022/03/09 00:54:39;;;;;;;12.90;5.47;;;;;;;0.16;91.95;100351.16;5117195;27;20047;-75
2022/03/09 00:57:07;;;;;;;12.43;5.97;;;;;;;0.19;92.01;100359.09;5117083;27;20379;-76
2022/03/09 00:59:35;;;;;;;11.98;5.32;;;;;;;0.10;91.83;100360.03;5116879;27;20089;-76
2022/03/09 01:02:03;;;;;;;11.68;5.20;;;;;;;0.23;91.68;100350.22;5116995;28;20047;-76
2022/03/09 01:04:30;;;;;;;13.00;5.30;;;;;;;0.15;91.61;100355.56;5116580;27;20043;-76
2022/03/09 01:06:57;;;;;;;15.82;5.60;;;;;;;0.14;91.40;100353.81;5116750;28;20538;-76
2022/03/09 01:09:25;;;;;;;11.85;5.20;;;;;;;0.04;91.51;100345.03;5116726;27;20047;-76
2022/03/09 01:11:53;;;;;;;10.60;4.93;;;;;;;0.06;91.10;100348.56;5116675;28;20050;-76
2022/03/09 01:14:22;;;;;;;11.98;5.72;;;;;;;0.12;90.91;100342.31;5116688;27;20074;-76
2022/03/09 01:16:49;;;;;;;11.77;4.75;;;;;;;0.08;91.22;100344.13;5116491;27;20044;-75
2022/03/09 01:19:17;;;;;;;13.85;5.45;;;;;;;0.09;90.76;100331.69;5116299;27;20055;-75
2022/03/09 01:21:44;;;;;;;12.82;5.25;;;;;;;0.09;91.25;100331.69;5116441;27;20047;-76
2022/03/09 01:24:12;;;;;;;10.95;5.20;;;;;;;0.12;90.83;100334.34;5116457;27;20039;-75
2022/03/09 01:26:39;;;;;;;11.98;5.15;;;;;;;0.07;91.34;100339.69;5116477;27;20044;-75
2022/03/09 01:29:07;;;;;;;11.52;4.93;;;;;;;0.12;90.18;100335.25;5116427;27;20044;-76
2022/03/09 01:31:37;;;;;;;15.25;5.55;;;;;;;-0.09;90.95;100330.91;5116395;27;20047;-76
2022/03/09 01:34:05;;;;;;;12.60;4.85;;;;;;;-0.18;91.24;100325.66;5115567;28;20387;-75
2022/03/09 01:36:32;;;;;;;11.25;5.20;;;;;;;-0.04;90.50;100334.44;5116263;27;20050;-76
2022/03/09 01:39:00;;;;;;;10.57;4.78;;;;;;;0.05;90.36;100340.59;5116059;28;20044;-76
2022/03/09 01:41:27;;;;;;;11.23;4.80;;;;;;;-0.05;90.39;100340.63;5116200;27;20043;-75
2022/03/09 01:44:08;;;;;;;11.30;4.55;;;;;;;-0.03;91.00;100344.16;5116197;27;20092;-76
2022/03/09 01:46:37;;;;;;;9.60;4.35;;;;;;;-0.10;90.59;100352.16;5115712;28;20047;-76
2022/03/09 01:49:05;;;;;;;9.75;4.35;;;;;;;0.02;90.16;100343.25;5115417;28;20108;-76
2022/03/09 01:51:33;;;;;;;11.82;5.05;;;;;;;0.02;90.12;100346.81;5115848;27;20052;-76
2022/03/09 01:54:01;;;;;;;10.98;4.82;;;;;;;0.02;90.31;100351.22;5115863;27;20126;-76
2022/03/09 01:56:28;;;;;;;10.50;4.88;;;;;;;-0.02;90.77;100355.66;5115901;28;20047;-76
2022/03/09 01:58:56;;;;;;;11.38;4.90;;;;;;;-0.06;90.58;100352.16;5115819;27;20448;-75
2022/03/09 02:01:24;;;;;;;10.57;4.90;;;;;;;-0.05;90.50;100351.25;5115792;27;20047;-76
2022/03/09 02:03:53;;;;;;;12.48;4.50;;;;;;;-0.07;90.52;100352.13;5114506;27;20067;-76
2022/03/09 02:06:20;;;;;;;12.20;4.90;;;;;;;-0.07;90.17;100342.41;5115580;28;20058;-76
2022/03/09 02:11:34;;;;;;;10.52;4.70;;;;;;;-0.07;90.20;100328.22;5115606;28;20040;-76
2022/03/09 02:14:01;;;;;;;11.73;4.40;;;;;;;-0.09;89.99;100328.25;5115308;27;20402;-76
2022/03/09 02:16:29;;;;;;;10.02;4.45;;;;;;;-0.11;90.60;100323.84;5115092;27;20066;-76
2022/03/09 02:19:01;;;;;;;9.93;4.47;;;;;;;-0.33;90.88;100322.16;5115360;27;20052;-76
2022/03/09 02:21:29;;;;;;;10.82;4.55;;;;;;;-0.12;91.08;100328.28;5115939;28;20104;-75
2022/03/09 02:23:58;;;;;;;10.35;4.53;;;;;;;-0.11;91.11;100340.66;5115255;28;20048;-76
2022/03/09 02:26:26;;;;;;;10.90;4.85;;;;;;;-0.05;90.61;100331.78;5114978;28;20050;-76
2022/03/09 02:28:53;;;;;;;10.48;4.90;;;;;;;-0.26;91.09;100332.75;5113512;27;20486;-76
2022/03/09 02:31:21;;;;;;;9.98;4.20;;;;;;;-0.26;91.30;100330.09;5114569;27;20043;-76
2022/03/09 02:33:48;;;;;;;12.02;5.20;;;;;;;-0.35;91.76;100334.56;5114922;27;20052;-76
2022/03/09 02:36:16;;;;;;;12.52;4.88;;;;;;;-0.19;91.25;100337.16;5115005;27;20039;-76
2022/03/09 02:38:43;;;;;;;11.80;4.80;;;;;;;-0.13;91.34;100342.44;5115082;27;20563;-76
2022/03/09 02:41:12;;;;;;;12.35;5.70;;;;;;;-0.20;91.53;100346.03;5114993;27;20055;-76
2022/03/09 02:43:40;;;;;;;12.85;5.90;;;;;;;-0.16;90.97;100347.78;5114851;27;20439;-76
2022/03/09 02:46:07;;;;;;;33.55;15.30;;;;;;;-0.16;91.47;100353.09;5114469;27;20100;-76
2022/03/09 02:48:35;;;;;;;26.73;11.65;;;;;;;-0.16;91.79;100350.44;5114691;27;20039;-76
2022/03/09 02:51:02;;;;;;;14.50;6.57;;;;;;;-0.11;90.73;100350.38;5114810;27;20482;-76
2022/03/09 02:53:30;;;;;;;11.77;5.30;;;;;;;-0.10;90.84;100346.84;5114658;27;20044;-76
2022/03/09 02:55:57;;;;;;;12.80;4.65;;;;;;;-0.21;91.12;100345.13;5114658;27;20485;-76
2022/03/09 02:58:27;;;;;;;10.98;4.75;;;;;;;-0.19;90.68;100343.34;5114563;27;20067;-75
2022/03/09 03:00:54;;;;;;;11.93;5.15;;;;;;;-0.20;89.97;100341.59;5114193;27;20047;-76
2022/03/09 03:03:22;;;;;;;12.95;5.45;;;;;;;-0.15;90.18;100341.56;5114488;28;20047;-75
2022/03/09 03:05:49;;;;;;;12.82;5.05;;;;;;;-0.08;90.02;100340.66;5114455;28;20097;-76
2022/03/09 03:08:17;;;;;;;10.77;5.05;;;;;;;-0.18;89.87;100330.97;5114510;28;20039;-75
2022/03/09 03:10:44;;;;;;;11.43;4.70;;;;;;;-0.20;89.50;100335.41;5114394;28;20047;-76
2022/03/09 03:13:12;;;;;;;10.40;4.85;;;;;;;-0.16;89.79;100332.72;5114371;27;20051;-76
2022/03/09 03:15:41;;;;;;;9.65;4.60;;;;;;;-0.20;90.00;100330.97;5113799;27;20048;-76
2022/03/09 03:18:08;;;;;;;11.55;5.18;;;;;;;-0.13;89.19;100330.94;5114186;27;20497;-76
2022/03/09 03:20:36;;;;;;;11.55;4.93;;;;;;;-0.15;89.25;100328.28;5114279;27;20039;-76
2022/03/09 03:23:03;;;;;;;11.20;5.22;;;;;;;-0.20;89.42;100317.69;5114197;27;20046;-76
2022/03/09 03:25:31;;;;;;;12.55;4.75;;;;;;;-0.20;88.87;100314.16;5114070;28;20513;-76
2022/03/09 03:27:58;;;;;;;11.02;4.97;;;;;;;-0.22;89.61;100314.16;5114175;27;20051;-76
2022/03/09 03:30:26;;;;;;;10.95;4.93;;;;;;;-0.24;89.29;100315.03;5113718;27;20044;-76
2022/03/09 03:32:55;;;;;;;10.25;4.70;;;;;;;-0.25;89.26;100308.84;5113867;27;20402;-76
2022/03/09 03:35:23;;;;;;;10.18;4.88;;;;;;;-0.12;89.03;100314.09;5113823;28;20044;-76
2022/03/09 03:37:50;;;;;;;11.00;4.78;;;;;;;-0.18;88.88;100312.38;5113994;27;20044;-76
2022/03/09 03:40:18;;;;;;;11.88;4.85;;;;;;;-0.14;88.56;100303.50;5114017;27;20047;-76
2022/03/09 03:42:45;;;;;;;10.98;4.80;;;;;;;-0.17;88.86;100309.69;5113906;27;20040;-76
2022/03/09 03:45:13;;;;;;;10.35;4.63;;;;;;;-0.26;88.23;100308.84;5113303;28;20055;-76
2022/03/09 03:47:40;;;;;;;11.90;4.78;;;;;;;-0.26;89.03;100301.78;5113633;27;20152;-76
2022/03/09 03:50:09;;;;;;;11.30;4.80;;;;;;;-0.26;88.87;100299.13;5113873;27;20100;-76
2022/03/09 03:52:37;;;;;;;11.25;5.10;;;;;;;-0.33;88.99;100298.25;5113605;27;20039;-76
2022/03/09 03:55:05;;;;;;;10.55;4.65;;;;;;;-0.45;89.75;100300.97;5113810;27;20051;-76
2022/03/09 03:57:33;;;;;;;12.60;5.50;;;;;;;-0.29;89.02;100301.78;5113664;27;20058;-76
2022/03/09 04:00:00;;;;;;;10.93;4.45;;;;;;;-0.39;88.91;100298.28;5113289;27;20048;-76
2022/03/09 04:02:28;;;;;;;11.90;5.00;;;;;;;-0.33;89.31;100300.91;5113890;27;20044;-76
2022/03/09 04:04:55;;;;;;;10.80;4.68;;;;;;;-0.32;89.42;100289.41;5113531;27;20548;-77
2022/03/09 04:07:24;;;;;;;10.15;4.85;;;;;;;-0.25;89.73;100302.66;5113650;27;20039;-76
2022/03/09 04:09:52;;;;;;;9.52;4.45;;;;;;;-0.23;89.87;100303.53;5113418;28;20452;-76
2022/03/09 04:12:19;;;;;;;10.95;4.93;;;;;;;-0.19;89.28;100300.00;5113178;27;20512;-76
2022/03/09 04:14:47;;;;;;;10.88;4.90;;;;;;;-0.20;89.19;100290.25;5113343;27;20055;-76
2022/03/09 04:17:14;;;;;;;12.25;4.80;;;;;;;-0.24;89.51;100296.44;5113336;27;20486;-76
2022/03/09 04:19:42;;;;;;;13.05;5.43;;;;;;;-0.25;90.09;100298.25;5113440;27;20058;-76
2022/03/09 04:22:09;;;;;;;11.65;4.93;;;;;;;-0.30;89.92;100294.72;5113331;27;20111;-76
2022/03/09 04:24:38;;;;;;;12.25;5.25;;;;;;;-0.19;90.41;100305.31;5113355;27;20487;-76
2022/03/09 04:27:06;;;;;;;12.30;4.82;;;;;;;-0.26;89.99;100306.19;5114901;27;20050;-76
2022/03/09 04:29:34;;;;;;;12.85;5.22;;;;;;;-0.30;89.79;100300.91;5117371;28;20479;-76
2022/03/09 04:32:01;;;;;;;13.05;5.68;;;;;;;-0.22;89.75;100308.84;5117252;28;20047;-77
2022/03/09 04:34:29;;;;;;;11.82;5.38;;;;;;;-0.21;89.70;100312.38;5117086;27;20096;-76
2022/03/09 04:36:56;;;;;;;11.77;5.10;;;;;;;-0.19;90.04;100315.91;5117324;28;20036;-76
2022/03/09 04:39:24;;;;;;;11.63;5.07;;;;;;;-0.19;90.00;100310.63;5117159;27;20447;-77
2022/03/09 04:41:53;;;;;;;10.75;4.85;;;;;;;-0.25;89.62;100313.28;5116952;27;20039;-76
2022/03/09 04:44:21;;;;;;;10.70;5.00;;;;;;;-0.22;90.14;100315.91;5117195;27;20055;-76
2022/03/09 04:46:48;;;;;;;13.65;4.95;;;;;;;-0.30;90.31;100316.84;5116847;28;20406;-76
2022/03/09 04:49:15;;;;;;;10.90;5.10;;;;;;;-0.29;90.70;100317.72;5117062;27;20047;-76
2022/03/09 04:51:43;;;;;;;11.70;5.28;;;;;;;-0.49;90.47;100317.81;5116971;28;20051;-76
2022/03/09 04:54:11;;;;;;;12.25;4.95;;;;;;;-0.27;91.11;100325.66;5116950;27;20047;-75
2022/03/09 04:56:38;;;;;;;11.95;5.38;;;;;;;-0.24;91.17;100329.22;5116503;28;20054;-76
2022/03/09 04:59:07;;;;;;;11.00;5.25;;;;;;;-0.32;91.14;100321.25;5117008;28;20089;-76
2022/03/09 05:01:35;;;;;;;12.00;5.38;;;;;;;-0.30;91.33;100323.94;5116670;27;20058;-76
2022/03/09 05:04:02;;;;;;;12.07;5.05;;;;;;;-0.40;91.90;100331.03;5116892;27;20047;-76
2022/03/09 05:06:30;;;;;;;12.50;5.25;;;;;;;-0.36;92.25;100331.91;5116601;28;20061;-76
2022/03/09 05:08:57;;;;;;;10.40;4.78;;;;;;;-0.31;92.42;100338.09;5116531;28;20055;-76
2022/03/09 05:11:25;;;;;;;11.20;5.15;;;;;;;-0.23;91.91;100346.00;5116325;27;20043;-76
2022/03/09 05:13:52;;;;;;;11.57;5.07;;;;;;;-0.24;91.83;100345.13;5116497;27;20061;-75
2022/03/09 05:16:22;;;;;;;13.70;5.40;;;;;;;-0.33;92.47;100342.53;5116490;27;20043;-76
2022/03/09 05:18:50;;;;;;;12.77;5.57;;;;;;;-0.37;92.81;100338.13;5116355;27;20112;-76
2022/03/09 05:21:17;;;;;;;10.27;4.82;;;;;;;-0.59;93.73;100344.38;5116362;27;20036;-76
2022/03/09 05:23:45;;;;;;;10.60;4.88;;;;;;;-0.51;93.85;100347.00;5116440;28;20097;-77
2022/03/09 05:26:12;;;;;;;11.48;5.20;;;;;;;-0.37;93.40;100351.41;5116035;27;20422;-76
2022/03/09 05:28:40;;;;;;;11.65;5.40;;;;;;;-0.45;93.38;100348.75;5116231;28;20093;-76
2022/03/09 05:31:08;;;;;;;10.70;5.00;;;;;;;-0.69;93.52;100358.53;5116378;27;20043;-75
2022/03/09 05:33:36;;;;;;;11.15;5.13;;;;;;;-0.75;93.95;100358.53;5115955;27;20498;-76
2022/03/09 05:36:04;;;;;;;11.43;5.15;;;;;;;-0.65;94.20;100359.41;5116274;27;20050;-76
2022/03/09 05:38:32;;;;;;;12.55;5.07;;;;;;;-0.45;93.33;100354.06;5110220;27;20043;-76
2022/03/09 05:40:59;;;;;;;11.52;5.00;;;;;;;-0.57;93.48;100356.75;5112249;27;20494;-75
2022/03/09 05:43:27;;;;;;;9.63;4.55;;;;;;;-0.88;93.78;100360.31;5111942;27;20051;-76
2022/03/09 05:45:55;;;;;;;12.35;5.30;;;;;;;-0.86;94.09;100361.19;5112548;27;20043;-76
2022/03/09 05:48:23;;;;;;;13.65;5.55;;;;;;;-0.55;93.63;100362.94;5112302;27;20452;-75
2022/03/09 05:50:51;;;;;;;12.55;5.28;;;;;;;-0.65;93.46;100376.19;5112480;27;20051;-75
2022/03/09 05:53:19;;;;;;;12.27;5.07;;;;;;;-0.75;93.84;100370.06;5112129;27;20093;-75
2022/03/09 05:55:46;;;;;;;13.60;5.25;;;;;;;-0.69;93.17;100379.75;5111524;27;20051;-76
2022/03/09 05:58:14;;;;;;;11.18;5.40;;;;;;;-0.67;93.56;100383.28;5112269;27;20563;-76
2022/03/09 06:00:41;;;;;;;12.15;5.03;;;;;;;-0.67;92.77;100377.97;5112207;27;20044;-75
2022/03/09 06:03:09;;;;;;;11.57;5.32;;;;;;;-0.67;92.72;100377.13;5112494;27;20052;-76
2022/03/09 06:05:37;;;;;;;14.27;5.53;;;;;;;-0.73;92.52;100378.00;5112036;27;20044;-77
2022/03/09 06:08:06;;;;;;;12.25;5.50;;;;;;;-0.63;92.59;100374.44;5111553;27;20055;-76
2022/03/09 06:10:34;;;;;;;15.85;5.80;;;;;;;-0.46;92.83;100386.81;5113288;27;20044;-76
2022/03/09 06:13:01;;;;;;;12.50;5.45;;;;;;;-0.66;92.66;100385.06;5115228;28;20486;-77
2022/03/09 06:15:29;;;;;;;97.32;48.67;;;;;;;-0.81;92.16;100393.03;5115285;28;20057;-76
2022/03/09 06:17:56;;;;;;;18.67;7.00;;;;;;;-0.86;92.46;100387.72;5115502;27;20482;-76
2022/03/09 06:20:26;;;;;;;12.35;5.43;;;;;;;-0.78;91.88;100393.94;5115151;27;20067;-76
2022/03/09 06:22:53;;;;;;;12.10;5.28;;;;;;;-0.85;91.62;100393.94;5115085;28;20512;-76
2022/03/09 06:25:23;;;;;;;12.93;5.35;;;;;;;-0.89;92.42;100396.59;5115086;28;20060;-77
2022/03/09 06:27:52;;;;;;;13.73;5.35;;;;;;;-0.79;92.74;100400.13;5115284;27;20091;-76
2022/03/09 06:30:20;;;;;;;14.02;6.13;;;;;;;-1.02;93.07;100402.75;5115142;27;20040;-75
2022/03/09 06:32:48;;;;;;;14.27;5.70;;;;;;;-0.71;92.81;100397.44;5115008;27;20039;-76
2022/03/09 06:35:16;;;;;;;13.98;5.97;;;;;;;-0.53;92.26;100390.38;5114294;27;20060;-75
2022/03/09 06:37:43;;;;;;;12.30;5.93;;;;;;;-0.64;92.90;100391.25;5114725;27;20047;-77
2022/03/09 06:40:12;;;;;;;16.77;6.38;;;;;;;-0.67;92.88;100385.94;5115004;27;20406;-76
2022/03/09 06:42:41;;;;;;;12.48;5.57;;;;;;;-0.55;92.33;100397.44;5114955;27;20043;-76
2022/03/09 06:45:09;;;;;;;14.75;6.28;;;;;;;-0.72;92.13;100400.97;5114872;27;20043;-76
2022/03/09 06:47:38;;;;;;;14.90;6.13;;;;;;;-0.84;93.02;100401.88;5113937;28;20036;-76
2022/03/09 06:50:08;;;;;;;12.93;6.25;;;;;;;-0.81;91.71;100399.25;5114393;27;20046;-76
2022/03/09 06:52:36;;;;;;;15.07;5.82;;;;;;;-0.49;91.60;100397.44;5114301;28;20044;-76
2022/03/09 06:55:04;;;;;;;13.75;6.07;;;;;;;-0.77;92.10;100393.06;5114583;27;20494;-76
2022/03/09 06:57:32;;;;;;;12.80;5.82;;;;;;;-0.92;92.56;100382.44;5114648;28;20088;-76
2022/03/09 07:00:02;;;;;;;11.98;5.57;;;;;;;-0.95;92.63;100385.09;5113486;28;20414;-76
2022/03/09 07:02:30;;;;;;;14.30;6.47;;;;;;;-0.55;92.23;100381.53;5114645;27;20100;-75
2022/03/09 07:04:57;;;;;;;12.75;5.45;;;;;;;-0.44;91.62;100374.41;5114393;27;20039;-75
2022/03/09 07:07:25;;;;;;;14.00;6.13;;;;;;;-0.40;91.19;100376.16;5114214;27;20046;-76
2022/03/09 07:09:52;;;;;;;12.38;6.00;;;;;;;-0.61;91.46;100383.31;5114482;27;20047;-76
2022/03/09 07:12:20;;;;;;;13.43;6.40;;;;;;;-0.35;91.88;100377.03;5114611;27;20043;-78
2022/03/09 07:14:48;;;;;;;12.68;5.90;;;;;;;-0.50;91.39;100382.38;5114157;28;20505;-76
2022/03/09 07:17:16;;;;;;;13.40;6.40;;;;;;;-0.74;92.57;100378.88;5114464;27;20044;-76
2022/03/09 07:19:44;;;;;;;13.15;6.03;;;;;;;-0.89;92.09;100378.03;5114061;27;20048;-77
2022/03/09 07:22:12;;;;;;;12.60;6.05;;;;;;;-0.82;92.28;100386.84;5113296;27;20040;-77
2022/03/09 07:24:39;;;;;;;16.42;6.97;;;;;;;-0.95;92.98;100378.03;5113175;27;20498;-77
2022/03/09 07:27:07;;;;;;;15.20;6.05;;;;;;;-0.68;91.91;100375.34;5112666;28;20136;-76
2022/03/09 07:29:34;;;;;;;15.52;7.20;;;;;;;-0.97;92.53;100378.91;5114159;28;20047;-75
2022/03/09 07:32:02;;;;;;;13.95;6.72;;;;;;;-0.77;91.44;100379.78;5113939;27;20043;-77
2022/03/09 07:34:31;;;;;;;13.80;6.28;;;;;;;-0.63;91.96;100379.75;5113491;28;20063;-75
2022/03/09 07:36:59;;;;;;;12.32;6.30;;;;;;;-0.67;91.06;100383.28;5113480;27;20043;-76
2022/03/09 07:39:28;;;;;;;13.65;6.63;;;;;;;-0.81;92.69;100374.47;5113904;28;20039;-76
2022/03/09 07:41:57;;;;;;;13.98;6.30;;;;;;;-0.81;91.72;100379.78;5113434;28;20085;-75
2022/03/09 07:44:25;;;;;;;13.90;6.70;;;;;;;-0.83;92.80;100386.84;5113582;27;20039;-76
2022/03/09 07:46:54;;;;;;;14.73;6.78;;;;;;;-0.44;91.43;100379.72;5113990;27;20043;-76
2022/03/09 07:49:22;;;;;;;14.75;6.80;;;;;;;-0.39;92.87;100379.72;5112674;27;20051;-76
2022/03/09 07:51:51;;;;;;;17.25;6.40;;;;;;;-0.44;92.53;100383.25;5109542;28;20065;-77
2022/03/09 07:54:18;;;;;;;14.02;6.53;;;;;;;-0.68;92.16;100381.53;5112294;27;20043;-76
2022/03/09 07:56:46;;;;;;;14.40;7.03;;;;;;;-0.53;91.11;100393.00;5112282;27;20051;-77
2022/03/09 07:59:14;;;;;;;15.57;6.68;;;;;;;-0.61;91.60;100390.38;5112280;27;20040;-76
2022/03/09 08:01:41;;;;;;;14.20;6.85;;;;;;;-0.42;91.76;100377.94;5111208;27;20043;-76
2022/03/09 08:04:09;;;;;;;13.60;6.40;;;;;;;-0.48;92.06;100386.78;5109376;28;20032;-77
2022/03/09 08:06:38;;;;;;;14.10;6.82;;;;;;;-0.27;90.90;100379.66;5112031;27;20039;-77
2022/03/09 08:09:07;;;;;;;12.82;6.38;;;;;;;-0.39;91.98;100391.19;5112135;28;20040;-77
2022/03/09 08:11:35;;;;;;;13.82;6.55;;;;;;;-0.74;92.36;100386.84;5112049;27;20043;-78
2022/03/09 08:14:02;;;;;;;14.18;7.35;;;;;;;-0.39;91.54;100380.59;5111830;28;20735;-76
2022/03/09 08:16:30;;;;;;;14.43;6.93;;;;;;;-0.66;91.95;100385.06;5109904;28;20047;-77
2022/03/09 08:18:57;;;;;;;13.40;7.25;;;;;;;-0.68;92.21;100389.47;5111691;28;20044;-76
2022/03/09 08:21:25;;;;;;;16.38;6.90;;;;;;;-0.60;93.15;100378.88;5111951;27;20105;-76
2022/03/09 08:23:53;;;;;;;12.75;6.75;;;;;;;-0.65;93.22;100378.00;5112021;27;20049;-77
2022/03/09 08:26:22;;;;;;;15.30;6.90;;;;;;;-0.64;93.14;100387.72;5112094;28;20054;-77
2022/03/09 08:28:49;;;;;;;14.20;7.03;;;;;;;-0.45;91.99;100386.78;5111959;28;20092;-77
2022/03/09 08:31:17;;;;;;;14.85;7.15;;;;;;;-0.37;92.00;100384.13;5112034;28;20036;-76
2022/03/09 08:33:45;;;;;;;14.75;6.93;;;;;;;-0.44;91.75;100380.59;5111427;27;20102;-76
2022/03/09 08:36:13;;;;;;;13.82;7.20;;;;;;;-0.16;91.96;100383.16;5111582;27;20043;-76
2022/03/09 08:38:42;;;;;;;15.25;7.25;;;;;;;-0.19;91.50;100384.97;5127930;28;20043;-78
2022/03/09 08:41:11;;;;;;;15.63;7.07;;;;;;;-0.19;91.69;100379.66;5109276;28;20039;-77
2022/03/09 08:43:40;;;;;;;15.45;6.90;;;;;;;-0.48;91.89;100391.22;5112055;27;20039;-77
2022/03/09 08:46:07;;;;;;;13.90;6.35;;;;;;;-0.26;91.46;100388.50;5111684;27;20073;-79
2022/03/09 08:48:35;;;;;;;14.70;7.03;;;;;;;-0.11;91.59;100396.44;5111058;28;20043;-77
2022/03/09 08:51:03;;;;;;;14.05;6.50;;;;;;;-0.18;90.91;100397.34;5111846;27;20421;-78
2022/03/09 08:53:31;;;;;;;15.15;7.07;;;;;;;-0.27;91.50;100392.03;5109124;28;20035;-78
2022/03/09 08:55:58;;;;;;;13.30;6.30;;;;;;;-0.15;90.67;100397.34;5111622;27;20397;-76
2022/03/09 08:58:26;;;;;;;15.45;7.03;;;;;;;-0.21;91.30;100392.91;5111533;28;20032;-76
2022/03/09 09:00:55;;;;;;;15.02;7.50;;;;;;;-0.44;90.98;100400.94;5111615;27;20120;-76
2022/03/09 09:03:23;;;;;;;15.48;7.25;;;;;;;-0.24;91.50;100397.34;5111181;27;20054;-77
2022/03/09 09:05:52;;;;;;;14.55;6.78;;;;;;;0.02;90.44;100396.38;5109019;28;20046;-78
2022/03/09 09:08:19;;;;;;;14.20;7.32;;;;;;;-0.52;90.79;100389.47;5111558;28;20089;-79
2022/03/09 09:10:48;;;;;;;14.20;6.72;;;;;;;-0.25;91.15;100379.66;5111386;28;20053;-76
2022/03/09 09:13:16;;;;;;;14.88;6.85;;;;;;;-0.28;91.33;100375.25;5112580;28;20077;-78
2022/03/09 09:15:43;;;;;;;16.02;7.50;;;;;;;-0.28;90.64;100377.91;5115197;28;20093;-79
2022/03/09 09:18:12;;;;;;;14.63;6.72;;;;;;;-0.36;90.81;100380.56;5112915;28;20046;-77
2022/03/09 09:20:40;;;;;;;14.32;6.47;;;;;;;-0.18;91.20;100382.28;5112089;28;20040;-78
2022/03/09 09:23:07;;;;;;;15.75;7.05;;;;;;;-0.16;89.96;100385.81;5112389;27;20448;-78
2022/03/09 09:25:36;;;;;;;16.58;7.60;;;;;;;-0.23;89.80;100381.44;5111801;27;20043;-79
2022/03/09 09:28:03;;;;;;;15.18;7.13;;;;;;;-0.01;89.29;100381.31;5112222;27;20100;-78
2022/03/09 09:30:31;;;;;;;13.98;6.90;;;;;;;-0.07;89.67;100389.31;5110116;28;20065;-78
2022/03/09 09:32:59;;;;;;;14.95;7.57;;;;;;;0.03;89.10;100391.06;5111682;27;20043;-78
2022/03/09 09:35:28;;;;;;;12.48;6.65;;;;;;;-0.13;88.84;100389.34;5112559;27;20096;-78
2022/03/09 09:37:56;;;;;;;14.93;7.22;;;;;;;0.19;88.92;100397.19;5109639;28;20047;-78
2022/03/09 09:40:24;;;;;;;15.15;7.05;;;;;;;0.12;88.64;100390.13;5111776;27;20409;-78
2022/03/09 09:42:52;;;;;;;14.38;7.00;;;;;;;-0.04;88.55;100390.22;5112192;28;20046;-78
2022/03/09 09:45:19;;;;;;;13.85;6.63;;;;;;;0.12;88.52;100387.47;5111415;27;20043;-78
2022/03/09 09:47:48;;;;;;;12.02;6.45;;;;;;;0.23;89.31;100398.97;5110480;27;20044;-78
2022/03/09 09:50:17;;;;;;;13.30;6.15;;;;;;;0.24;88.90;100397.16;5108704;28;20075;-78
2022/03/09 09:52:46;;;;;;;13.27;7.18;;;;;;;0.20;88.30;100398.06;5111238;28;20054;-78
2022/03/09 09:55:14;;;;;;;13.32;6.78;;;;;;;-0.04;87.81;100397.28;5109545;28;20039;-78
2022/03/09 09:57:41;;;;;;;14.27;7.30;;;;;;;-0.08;88.61;100398.19;5111468;27;20051;-78
2022/03/09 10:00:10;;;;;;;15.73;7.05;;;;;;;0.22;88.31;100391.88;5110697;27;20047;-78
2022/03/09 10:02:38;;;;;;;15.90;7.90;;;;;;;0.17;88.47;100392.78;5111187;28;20059;-79
2022/03/09 10:05:06;;;;;;;16.70;7.97;;;;;;;0.41;87.98;100397.06;5110369;28;20078;-79
2022/03/09 10:07:34;;;;;;;16.10;8.18;;;;;;;0.05;88.05;100414.97;5114690;27;20043;-77
2022/03/09 10:10:03;;;;;;;18.02;8.57;;;;;;;0.39;88.73;100412.16;5114857;27;20401;-78
2022/03/09 10:12:30;;;;;;;17.65;9.10;;;;;;;0.15;88.22;100406.06;5115192;27;20044;-79
2022/03/09 10:15:00;;;;;;;19.65;8.43;;;;;;;0.14;88.46;100404.28;5114309;27;20052;-79
2022/03/09 10:17:29;;;;;;;20.35;10.52;;;;;;;0.29;89.22;100408.66;5112815;28;20047;-78
2022/03/09 10:20:00;;;;;;;16.70;9.43;;;;;;;0.18;88.20;100406.03;5115117;27;20105;-78
2022/03/09 10:22:30;;;;;;;18.38;8.85;;;;;;;0.15;87.74;100414.03;5113090;28;20051;-79
2022/03/09 10:25:00;;;;;;;16.65;8.63;;;;;;;0.24;87.58;100405.13;5114006;28;20042;-79
2022/03/09 10:27:41;;;;;;;18.20;9.27;;;;;;;0.15;88.18;100406.06;5114235;27;20043;-79
2022/03/09 10:30:10;;;;;;;21.13;9.15;;;;;;;0.27;88.21;100403.38;5113277;28;20560;-78
2022/03/09 10:32:49;;;;;;;17.45;9.15;;;;;;;0.53;87.95;100399.66;5114312;27;20048;-79
2022/03/09 10:35:18;;;;;;;16.02;8.75;;;;;;;0.62;87.08;100412.00;5113829;27;20063;-79
2022/03/09 10:37:47;;;;;;;16.58;8.80;;;;;;;0.40;87.74;100398.84;5114147;27;20043;-79
2022/03/09 10:40:17;;;;;;;17.80;8.98;;;;;;;0.24;87.46;100416.66;5113885;28;20052;-79
2022/03/09 10:42:46;;;;;;;18.20;9.20;;;;;;;0.40;87.85;100408.59;5113748;27;20052;-79
2022/03/09 10:45:14;;;;;;;19.05;9.75;;;;;;;0.65;86.32;100405.81;5113529;27;20044;-78
2022/03/09 10:47:43;;;;;;;18.17;8.88;;;;;;;0.45;87.86;100409.47;5113708;27;20405;-78
2022/03/09 10:50:16;;;;;;;19.58;9.65;;;;;;;0.15;87.22;100403.41;5113877;27;20051;-79
2022/03/09 10:52:46;;;;;;;17.55;8.73;;;;;;;0.28;88.35;100407.78;5114059;27;20035;-78
2022/03/09 10:55:28;;;;;;;16.42;8.23;;;;;;;0.50;88.33;100417.41;5113572;27;20047;-79
2022/03/09 10:58:10;;;;;;;18.25;9.48;;;;;;;0.17;88.31;100406.06;5113791;28;20040;-78
2022/03/09 11:00:43;;;;;;;16.25;8.05;;;;;;;0.25;88.17;100402.50;5113865;28;20044;-78
2022/03/09 11:03:12;;;;;;;15.32;7.38;;;;;;;0.49;87.87;100407.69;5113455;27;20044;-78
2022/03/09 11:05:53;;;;;;;15.10;7.55;;;;;;;0.63;87.62;100407.59;5112809;27;20110;-78
2022/03/09 11:08:22;;;;;;;14.00;6.97;;;;;;;0.48;87.10;100408.56;5110903;28;20052;-78
2022/03/09 11:10:50;;;;;;;14.05;7.40;;;;;;;0.37;87.27;100416.59;5112930;27;20040;-79
2022/03/09 11:13:19;;;;;;;15.10;6.95;;;;;;;0.46;87.69;100410.34;5112486;27;20505;-79
2022/03/09 11:15:48;;;;;;;16.10;7.50;;;;;;;0.58;87.03;100411.13;5112774;27;20039;-78
2022/03/09 11:18:19;;;;;;;18.73;7.63;;;;;;;0.46;87.02;100419.19;5113365;27;20441;-78
2022/03/09 11:20:47;;;;;;;15.18;7.90;;;;;;;0.38;87.64;100424.53;5112631;28;20096;-78
2022/03/09 11:23:15;;;;;;;16.73;8.55;;;;;;;0.32;87.04;100421.06;5113770;27;20036;-77
2022/03/09 11:25:50;;;;;;;17.30;9.43;;;;;;;0.40;87.46;100420.09;5113475;27;20039;-78